Time;durP1;ratioP1;P1;durP2;ratioP2;P2;SDS_P1;SDS_P2;PMS_P1;PMS_P2;Temp;Humidity;BMP_temperature;BMP_pressure;BME280_temperature;BME280_humidity;BME280_pressure;Samples;Min_cycle;Max_cycle;Signal;HPM_P1;HPM_P2
2022/04/05 00:01:42;;;;;;;;;12.00;10.75;;;;;-142.59;100.00;56100.38;5110722;27;49911;-69
2022/04/05 00:04:07;;;;;;;;;13.75;13.25;;;;;-142.59;100.00;56100.38;5111159;27;49982;-70
2022/04/05 00:06:33;;;;;;;;;15.00;15.00;;;;;-142.59;100.00;56100.38;5110601;27;50624;-69
2022/04/05 00:08:58;;;;;;;;;13.50;13.25;;;;;-142.59;100.00;56100.38;5110585;27;49807;-70
2022/04/05 00:11:23;;;;;;;;;16.25;13.50;;;;;-142.59;100.00;56100.38;5110596;27;49818;-70
2022/04/05 00:13:49;;;;;;;;;17.00;14.00;;;;;-142.59;100.00;56100.38;5110889;27;50138;-69
2022/04/05 00:16:15;;;;;;;;;13.75;13.75;;;;;-142.59;100.00;56100.38;5110240;27;53304;-69
2022/04/05 00:18:40;;;;;;;;;13.00;13.00;;;;;-142.59;100.00;56100.38;5110535;27;49979;-69
2022/04/05 00:21:06;;;;;;;;;15.00;14.00;;;;;-142.59;100.00;56100.38;5110152;27;49808;-69
2022/04/05 00:23:32;;;;;;;;;13.50;13.00;;;;;-142.59;100.00;56100.38;5111198;27;49745;-67
2022/04/05 00:25:57;;;;;;;;;16.50;16.25;;;;;-142.59;100.00;56100.38;5097396;27;50276;-64
2022/04/05 00:28:22;;;;;;;;;13.00;11.25;;;;;-142.59;100.00;56100.38;5090466;27;49696;-68
2022/04/05 00:30:48;;;;;;;;;12.75;12.25;;;;;-142.59;100.00;56100.38;5090827;27;49903;-67
2022/04/05 00:33:13;;;;;;;;;9.25;9.25;;;;;-142.59;100.00;56100.38;5090772;27;49951;-67
2022/04/05 00:35:39;;;;;;;;;12.75;12.75;;;;;-142.59;100.00;56100.38;5090277;27;49786;-68
2022/04/05 00:38:04;;;;;;;;;16.50;15.00;;;;;-142.59;100.00;56100.38;5089800;27;49825;-67
2022/04/05 00:40:30;;;;;;;;;20.75;16.50;;;;;-142.59;100.00;56100.38;5093542;27;49785;-68
2022/04/05 00:42:56;;;;;;;;;14.25;14.25;;;;;-142.59;100.00;56100.38;5094205;27;49840;-68
2022/04/05 00:45:21;;;;;;;;;13.50;12.75;;;;;-142.59;100.00;56100.38;5094142;27;50514;-67
2022/04/05 00:47:49;;;;;;;;;18.75;14.00;;;;;-142.59;100.00;56100.38;5094059;27;49742;-67
2022/04/05 00:50:19;;;;;;;;;15.00;14.25;;;;;-142.59;100.00;56100.38;5093855;27;49832;-68
2022/04/05 00:52:45;;;;;;;;;17.00;17.00;;;;;-142.59;100.00;56100.38;5094112;27;50054;-67
2022/04/05 00:55:12;;;;;;;;;11.50;9.00;;;;;-142.59;100.00;56100.38;5092308;27;52791;-68
2022/04/05 00:57:37;;;;;;;;;15.50;13.00;;;;;-142.59;100.00;56100.38;5110131;27;50281;-67
2022/04/05 01:00:07;;;;;;;;;16.50;15.50;;;;;-142.59;100.00;56100.38;5113579;27;49781;-62
2022/04/05 01:02:37;;;;;;;;;14.25;13.50;;;;;-142.59;100.00;56100.38;5129796;27;50299;-61
2022/04/05 01:05:03;;;;;;;;;16.00;15.50;;;;;-142.59;100.00;56100.38;5113348;27;50649;-61
2022/04/05 01:07:30;;;;;;;;;14.75;13.00;;;;;-142.59;100.00;56100.38;5111911;27;50196;-61
2022/04/05 01:09:56;;;;;;;;;14.00;14.00;;;;;-142.59;100.00;56100.38;5113410;27;49897;-63
2022/04/05 01:12:22;;;;;;;;;17.00;14.50;;;;;-142.59;100.00;56100.38;5113272;27;49948;-61
2022/04/05 01:14:48;;;;;;;;;21.50;14.25;;;;;-142.59;100.00;56100.38;5113183;27;49810;-61
2022/04/05 01:17:14;;;;;;;;;13.25;13.25;;;;;-142.59;100.00;56100.38;5113223;27;49942;-61
2022/04/05 01:19:40;;;;;;;;;13.25;13.25;;;;;-142.59;100.00;56100.38;5113370;27;49840;-61
2022/04/05 01:22:06;;;;;;;;;15.50;13.75;;;;;-142.59;100.00;56100.38;5113607;27;49746;-61
2022/04/05 01:24:32;;;;;;;;;14.00;14.00;;;;;-142.59;100.00;56100.38;5113185;27;49703;-61
2022/04/05 01:27:01;;;;;;;;;14.50;14.50;;;;;-142.59;100.00;56100.38;5112830;27;49949;-61
2022/04/05 01:29:28;;;;;;;;;15.50;15.50;;;;;-142.59;100.00;56100.38;5113034;27;50034;-61
2022/04/05 01:32:03;;;;;;;;;12.25;12.25;;;;;-142.59;100.00;56100.38;5113374;27;49824;-60
2022/04/05 01:34:31;;;;;;;;;14.75;12.75;;;;;-142.59;100.00;56100.38;5112865;27;50561;-61
2022/04/05 01:36:59;;;;;;;;;14.25;12.00;;;;;-142.59;100.00;56100.38;5113024;27;49800;-61
2022/04/05 01:39:28;;;;;;;;;12.25;11.50;;;;;-142.59;100.00;56100.38;5113218;27;49569;-61
2022/04/05 01:41:57;;;;;;;;;10.75;10.75;;;;;-142.59;100.00;56100.38;5113011;27;50088;-61
2022/04/05 01:44:24;;;;;;;;;14.25;14.25;;;;;-142.59;100.00;56100.38;5112648;27;49838;-61
2022/04/05 01:46:50;;;;;;;;;12.50;10.75;;;;;-142.59;100.00;56100.38;5112649;27;49900;-61
2022/04/05 01:49:16;;;;;;;;;13.75;13.75;;;;;-142.59;100.00;56100.38;5112525;27;49704;-66
2022/04/05 01:51:43;;;;;;;;;16.75;16.75;;;;;-142.59;100.00;56100.38;5111771;27;49795;-66
2022/04/05 01:54:11;;;;;;;;;16.25;12.00;;;;;-142.59;100.00;56100.38;5112380;27;49902;-67
2022/04/05 01:56:48;;;;;;;;;14.25;13.50;;;;;-142.59;100.00;56100.38;5112306;27;49731;-61
2022/04/05 01:59:19;;;;;;;;;17.25;16.00;;;;;-142.59;100.00;56100.38;5128717;27;49784;-66
2022/04/05 02:01:45;;;;;;;;;14.25;14.25;;;;;-142.59;100.00;56100.38;5112802;27;49807;-67
2022/04/05 02:04:11;;;;;;;;;13.00;13.00;;;;;-142.59;100.00;56100.38;5111966;27;50819;-67
2022/04/05 02:06:41;;;;;;;;;14.00;13.00;;;;;-142.59;100.00;56100.38;5112460;27;49667;-68
2022/04/05 02:09:06;;;;;;;;;14.25;13.25;;;;;-142.59;100.00;56100.38;5112440;27;49723;-68
2022/04/05 02:11:32;;;;;;;;;17.00;16.25;;;;;-142.59;100.00;56100.38;5112218;27;50022;-67
2022/04/05 02:13:58;;;;;;;;;17.50;16.25;;;;;-142.59;100.00;56100.38;5112428;27;50739;-68
2022/04/05 02:16:25;;;;;;;;;13.50;13.50;;;;;-142.59;100.00;56100.38;5112459;27;49807;-67
2022/04/05 02:18:50;;;;;;;;;14.75;14.50;;;;;-142.59;100.00;56100.38;5112418;27;49892;-67
2022/04/05 02:21:15;;;;;;;;;12.00;12.00;;;;;-142.59;100.00;56100.38;5112340;27;49906;-67
2022/04/05 02:23:41;;;;;;;;;14.25;13.00;;;;;-142.59;100.00;56100.38;5097529;27;51003;-66
2022/04/05 02:26:06;;;;;;;;;11.75;10.00;;;;;-142.59;100.00;56100.38;5111935;27;49788;-66
2022/04/05 02:28:31;;;;;;;;;13.50;13.50;;;;;-142.59;100.00;56100.38;5112430;27;49802;-68
2022/04/05 02:30:57;;;;;;;;;14.50;13.00;;;;;-142.59;100.00;56100.38;5112540;27;49837;-67
2022/04/05 02:33:22;;;;;;;;;14.25;13.00;;;;;-142.59;100.00;56100.38;5111959;27;53331;-68
2022/04/05 02:35:48;;;;;;;;;12.50;12.50;;;;;-142.59;100.00;56100.38;5111953;27;49758;-68
2022/04/05 02:38:14;;;;;;;;;21.50;17.75;;;;;-142.59;100.00;56100.38;5111924;27;49746;-67
2022/04/05 02:40:40;;;;;;;;;13.25;13.25;;;;;-142.59;100.00;56100.38;5112138;27;49908;-68
2022/04/05 02:43:05;;;;;;;;;16.75;15.25;;;;;-142.59;100.00;56100.38;5111407;27;49887;-68
2022/04/05 02:45:31;;;;;;;;;20.75;20.75;;;;;-142.59;100.00;56100.38;5111947;27;49658;-68
2022/04/05 02:47:56;;;;;;;;;14.25;13.50;;;;;-142.59;100.00;56100.38;5111988;27;49823;-67
2022/04/05 02:50:22;;;;;;;;;19.75;16.75;;;;;-142.59;100.00;56100.38;5112143;27;50043;-68
2022/04/05 02:52:48;;;;;;;;;15.75;14.25;;;;;-142.59;100.00;56100.38;5111824;27;49405;-67
2022/04/05 02:55:15;;;;;;;;;16.00;15.50;;;;;-142.59;100.00;56100.38;5111539;27;50141;-61
2022/04/05 02:57:41;;;;;;;;;9.50;8.00;;;;;-142.59;100.00;56100.38;5111436;27;49796;-61
2022/04/05 03:00:08;;;;;;;;;15.00;14.00;;;;;-142.59;100.00;56100.38;5111811;27;49793;-61
2022/04/05 03:02:34;;;;;;;;;21.75;16.50;;;;;-142.59;100.00;56100.38;5110492;27;51876;-61
2022/04/05 03:05:01;;;;;;;;;12.75;12.75;;;;;-142.59;100.00;56100.38;5111616;27;49910;-61
2022/04/05 03:07:27;;;;;;;;;16.50;13.25;;;;;-142.59;100.00;56100.38;5111627;27;50191;-61
2022/04/05 03:09:53;;;;;;;;;17.75;16.25;;;;;-142.59;100.00;56100.38;5111746;27;50074;-60
2022/04/05 03:12:18;;;;;;;;;13.00;13.00;;;;;-142.59;100.00;56100.38;5111108;27;49963;-60
2022/04/05 03:14:45;;;;;;;;;17.00;13.50;;;;;-142.59;100.00;56100.38;5111538;27;49985;-62
2022/04/05 03:17:11;;;;;;;;;17.50;14.50;;;;;-142.59;100.00;56100.38;5111421;27;49962;-61
2022/04/05 03:19:36;;;;;;;;;14.50;14.50;;;;;-142.59;100.00;56100.38;5111528;27;49907;-61
2022/04/05 03:22:02;;;;;;;;;15.00;14.50;;;;;-142.59;100.00;56100.38;5111216;27;49924;-61
2022/04/05 03:24:28;;;;;;;;;18.00;17.75;;;;;-142.59;100.00;56100.38;5111740;27;49547;-61
2022/04/05 03:26:53;;;;;;;;;13.25;13.25;;;;;-142.59;100.00;56100.38;5111210;27;49718;-61
2022/04/05 03:29:18;;;;;;;;;12.75;11.50;;;;;-142.59;100.00;56100.38;5111488;27;49756;-61
2022/04/05 03:31:44;;;;;;;;;15.25;14.50;;;;;-142.59;100.00;56100.38;5110993;27;50451;-61
2022/04/05 03:34:09;;;;;;;;;11.00;11.00;;;;;-142.59;100.00;56100.38;5110964;27;49801;-60
2022/04/05 03:36:34;;;;;;;;;14.75;13.25;;;;;-142.59;100.00;56100.38;5111038;27;49819;-61
2022/04/05 03:39:00;;;;;;;;;12.00;10.25;;;;;-142.59;100.00;56100.38;5111327;27;49615;-61
2022/04/05 03:41:25;;;;;;;;;12.75;12.75;;;;;-142.59;100.00;56100.38;5110661;27;49806;-61
2022/04/05 03:43:51;;;;;;;;;16.25;12.00;;;;;-142.59;100.00;56100.38;5111182;27;49731;-61
2022/04/05 03:46:16;;;;;;;;;12.25;11.50;;;;;-142.59;100.00;56100.38;5111194;27;49839;-61
2022/04/05 03:48:42;;;;;;;;;12.50;11.25;;;;;-142.59;100.00;56100.38;5111040;27;49660;-61
2022/04/05 03:51:09;;;;;;;;;16.25;13.00;;;;;-142.59;100.00;56100.38;5110558;27;50254;-61
2022/04/05 03:53:36;;;;;;;;;13.50;12.75;;;;;-142.59;100.00;56100.38;5110724;27;49730;-61
2022/04/05 03:56:02;;;;;;;;;6.50;6.50;;;;;-142.59;100.00;56100.38;5110600;27;49655;-60
2022/04/05 03:58:27;;;;;;;;;12.50;11.25;;;;;-142.59;100.00;56100.38;5110887;27;49781;-61
2022/04/05 04:00:53;;;;;;;;;12.75;12.75;;;;;-142.59;100.00;56100.38;5110762;27;50481;-60
2022/04/05 04:03:19;;;;;;;;;13.50;12.00;;;;;-142.59;100.00;56100.38;5111005;27;49737;-62
2022/04/05 04:05:44;;;;;;;;;11.50;11.00;;;;;-142.59;100.00;56100.38;5110851;27;49756;-60
2022/04/05 04:08:09;;;;;;;;;13.50;11.00;;;;;-142.59;100.00;56100.38;5110778;27;49830;-61
2022/04/05 04:10:35;;;;;;;;;11.50;11.00;;;;;-142.59;100.00;56100.38;5110385;27;49925;-61
2022/04/05 04:13:00;;;;;;;;;14.25;12.00;;;;;-142.59;100.00;56100.38;5096760;27;49913;-61
2022/04/05 04:15:26;;;;;;;;;14.25;13.75;;;;;-142.59;100.00;56100.38;5094405;27;49779;-61
2022/04/05 04:17:51;;;;;;;;;13.75;12.25;;;;;-142.59;100.00;56100.38;5094832;27;49831;-61
2022/04/05 04:20:17;;;;;;;;;14.75;13.75;;;;;-142.59;100.00;56100.38;5094360;27;50260;-61
2022/04/05 04:22:42;;;;;;;;;9.00;8.00;;;;;-142.59;100.00;56100.38;5094610;27;49686;-61
2022/04/05 04:25:08;;;;;;;;;13.00;9.00;;;;;-142.59;100.00;56100.38;5094425;27;50023;-60
2022/04/05 04:27:34;;;;;;;;;14.50;12.75;;;;;-142.59;100.00;56100.38;5094627;27;49813;-61
2022/04/05 04:30:00;;;;;;;;;12.50;11.75;;;;;-142.59;100.00;56100.38;5093836;27;50749;-62
2022/04/05 04:32:26;;;;;;;;;14.25;12.50;;;;;-142.59;100.00;56100.38;5094273;27;49748;-68
2022/04/05 04:34:51;;;;;;;;;15.50;13.50;;;;;-142.59;100.00;56100.38;5094281;27;49998;-66
2022/04/05 04:37:17;;;;;;;;;13.00;12.00;;;;;-142.59;100.00;56100.38;5094552;27;49808;-68
2022/04/05 04:39:42;;;;;;;;;10.25;8.25;;;;;-142.59;100.00;56100.38;5094050;27;50879;-68
2022/04/05 04:42:08;;;;;;;;;12.75;12.75;;;;;-142.59;100.00;56100.38;5094203;27;49611;-67
2022/04/05 04:44:33;;;;;;;;;14.25;12.25;;;;;-142.59;100.00;56100.38;5093936;27;49827;-67
2022/04/05 04:46:58;;;;;;;;;13.50;12.00;;;;;-142.59;100.00;56100.38;5094152;27;49734;-67
2022/04/05 04:49:24;;;;;;;;;14.00;11.75;;;;;-142.59;100.00;56100.38;5093623;27;49812;-68
2022/04/05 04:51:50;;;;;;;;;17.25;14.75;;;;;-142.59;100.00;56100.38;5093936;27;49818;-61
2022/04/05 04:54:15;;;;;;;;;14.75;14.75;;;;;-142.59;100.00;56100.38;5094197;27;49771;-64
2022/04/05 04:56:41;;;;;;;;;13.75;13.75;;;;;-142.59;100.00;56100.38;5093916;27;49786;-61
2022/04/05 04:59:06;;;;;;;;;17.00;14.25;;;;;-142.59;100.00;56100.38;5093553;27;50745;-61
2022/04/05 05:01:31;;;;;;;;;14.00;12.75;;;;;-142.59;100.00;56100.38;5093986;27;49734;-61
2022/04/05 05:03:58;;;;;;;;;11.75;11.75;;;;;-142.59;100.00;56100.38;5093518;27;50116;-61
2022/04/05 05:06:23;;;;;;;;;11.75;11.25;;;;;-142.59;100.00;56100.38;5093934;27;50005;-61
2022/04/05 05:08:49;;;;;;;;;10.25;9.75;;;;;-142.59;100.00;56100.38;5093596;27;50522;-61
2022/04/05 05:11:14;;;;;;;;;17.00;13.50;;;;;-142.59;100.00;56100.38;5093834;27;49781;-61
2022/04/05 05:13:39;;;;;;;;;9.75;9.25;;;;;-142.59;100.00;56100.38;5093425;27;49624;-61
2022/04/05 05:16:05;;;;;;;;;13.75;13.75;;;;;-142.59;100.00;56100.38;5094059;27;49933;-61
2022/04/05 05:18:30;;;;;;;;;12.25;12.25;;;;;-142.59;100.00;56100.38;5092258;27;51395;-60
2022/04/05 05:20:56;;;;;;;;;14.50;13.50;;;;;-142.59;100.00;56100.38;5093570;27;49537;-61
2022/04/05 05:23:22;;;;;;;;;13.00;13.00;;;;;-142.59;100.00;56100.38;5093480;27;49775;-61
2022/04/05 05:25:47;;;;;;;;;14.25;13.50;;;;;-142.59;100.00;56100.38;5093005;27;50089;-62
2022/04/05 05:28:14;;;;;;;;;14.00;12.50;;;;;-142.59;100.00;56100.38;5093170;27;49801;-61
2022/04/05 05:30:39;;;;;;;;;15.25;14.00;;;;;-142.59;100.00;56100.38;5093598;27;49699;-61
2022/04/05 05:33:05;;;;;;;;;15.25;15.00;;;;;-142.59;100.00;56100.38;5093559;27;49672;-63
2022/04/05 05:35:30;;;;;;;;;13.50;13.50;;;;;-142.59;100.00;56100.38;5093494;27;49753;-73
2022/04/05 05:37:56;;;;;;;;;15.25;15.00;;;;;-142.59;100.00;56100.38;5094172;27;50572;-69
2022/04/05 05:40:21;;;;;;;;;14.50;14.50;;;;;-142.59;100.00;56100.38;5093242;27;49845;-66
2022/04/05 05:43:01;;;;;;;;;11.75;11.75;;;;;-142.59;100.00;56100.38;5105738;27;49792;-76
2022/04/05 05:45:28;;;;;;;;;13.00;12.75;;;;;-142.59;100.00;56100.38;5093258;27;49932;-69
2022/04/05 05:47:57;;;;;;;;;15.50;14.50;;;;;-142.59;100.00;56100.38;5092933;27;50676;-69
2022/04/05 05:50:25;;;;;;;;;18.00;17.25;;;;;-142.59;100.00;56100.38;5093225;27;49808;-69
2022/04/05 05:52:51;;;;;;;;;13.25;13.25;;;;;-142.59;100.00;56100.38;5093139;27;49683;-69
2022/04/05 05:55:19;;;;;;;;;15.00;12.25;;;;;-142.59;100.00;56100.38;5093088;27;49932;-68
2022/04/05 05:57:45;;;;;;;;;13.00;13.00;;;;;-142.59;100.00;56100.38;5092843;27;50636;-68
2022/04/05 06:00:17;;;;;;;;;13.25;12.00;;;;;-142.59;100.00;56100.38;5092709;27;49858;-69
2022/04/05 06:02:44;;;;;;;;;14.50;14.50;;;;;-142.59;100.00;56100.38;5093002;27;49868;-66
2022/04/05 06:05:11;;;;;;;;;17.00;15.25;;;;;-142.59;100.00;56100.38;5093377;27;49525;-67
2022/04/05 06:07:36;;;;;;;;;10.25;9.75;;;;;-142.59;100.00;56100.38;5094075;27;50641;-67
2022/04/05 06:10:06;;;;;;;;;12.25;11.75;;;;;-142.59;100.00;56100.38;5092826;27;49702;-66
2022/04/05 06:12:32;;;;;;;;;16.00;14.25;;;;;-142.59;100.00;56100.38;5092814;27;50207;-66
2022/04/05 06:14:57;;;;;;;;;13.00;12.75;;;;;-142.59;100.00;56100.38;5092545;27;49733;-66
2022/04/05 06:17:24;;;;;;;;;12.75;11.50;;;;;-142.59;100.00;56100.38;5092900;27;50672;-66
2022/04/05 06:19:50;;;;;;;;;14.25;14.00;;;;;-142.59;100.00;56100.38;5093180;27;49783;-67
2022/04/05 06:22:16;;;;;;;;;16.00;13.75;;;;;-142.59;100.00;56100.38;5096069;27;49663;-68
2022/04/05 06:24:41;;;;;;;;;10.50;9.25;;;;;-142.59;100.00;56100.38;5093600;27;49952;-68
2022/04/05 06:27:06;;;;;;;;;14.75;14.75;;;;;-142.59;100.00;56100.38;5092459;27;49744;-69
2022/04/05 06:29:33;;;;;;;;;14.00;12.50;;;;;-142.59;100.00;56100.38;5103423;27;49679;-65
2022/04/05 06:31:58;;;;;;;;;18.00;15.25;;;;;-142.59;100.00;56100.38;5101045;27;49781;-69
2022/04/05 06:34:27;;;;;;;;;15.50;14.75;;;;;-142.59;100.00;56100.38;5099061;27;49895;-68
2022/04/05 06:36:53;;;;;;;;;13.25;13.00;;;;;-142.59;100.00;56100.38;5097531;27;50448;-68
2022/04/05 06:39:19;;;;;;;;;16.25;13.25;;;;;-142.59;100.00;56100.38;5092261;27;49674;-67
2022/04/05 06:41:45;;;;;;;;;13.75;12.50;;;;;-142.59;100.00;56100.38;5092263;27;49764;-66
2022/04/05 06:44:10;;;;;;;;;14.25;14.00;;;;;-142.59;100.00;56100.38;5089388;27;50043;-70
2022/04/05 06:46:36;;;;;;;;;16.75;13.25;;;;;-142.59;100.00;56100.38;5110801;27;50732;-66
2022/04/05 06:49:03;;;;;;;;;15.00;13.00;;;;;-142.59;100.00;56100.38;5111514;27;49715;-65
2022/04/05 06:51:29;;;;;;;;;14.50;13.00;;;;;-142.59;100.00;56100.38;5091881;27;50373;-65
2022/04/05 06:53:56;;;;;;;;;14.00;12.50;;;;;-142.59;100.00;56100.38;5110195;27;49646;-66
2022/04/05 06:56:25;;;;;;;;;10.75;10.75;;;;;-142.59;100.00;56100.38;5111295;27;50523;-65
2022/04/05 06:58:51;;;;;;;;;14.25;11.50;;;;;-142.59;100.00;56100.38;5111374;27;49529;-65
2022/04/05 07:01:16;;;;;;;;;14.75;12.50;;;;;-142.59;100.00;56100.38;5112195;27;49876;-65
2022/04/05 07:03:41;;;;;;;;;16.50;14.25;;;;;-142.59;100.00;56100.38;5112007;27;49873;-66
2022/04/05 07:06:07;;;;;;;;;10.75;10.75;;;;;-142.59;100.00;56100.38;5126522;27;52802;-66
2022/04/05 07:08:32;;;;;;;;;10.00;9.00;;;;;-142.59;100.00;56100.38;5111474;27;49781;-65
2022/04/05 07:10:57;;;;;;;;;13.50;10.00;;;;;-142.59;100.00;56100.38;5111273;27;49891;-66
2022/04/05 07:13:22;;;;;;;;;17.00;12.00;;;;;-142.59;100.00;56100.38;5111172;27;49671;-66
2022/04/05 07:15:48;;;;;;;;;9.50;9.00;;;;;-142.59;100.00;56100.38;5110221;27;51747;-70
2022/04/05 07:18:14;;;;;;;;;14.00;12.25;;;;;-142.59;100.00;56100.38;5111493;27;49771;-69
2022/04/05 07:20:39;;;;;;;;;13.25;13.25;;;;;-142.59;100.00;56100.38;5111214;27;49876;-68
2022/04/05 07:23:05;;;;;;;;;10.00;9.25;;;;;-142.59;100.00;56100.38;5109226;27;50009;-65
2022/04/05 07:25:32;;;;;;;;;12.50;10.75;;;;;-142.59;100.00;56100.38;5095264;27;50710;-69
2022/04/05 07:27:58;;;;;;;;;15.25;14.00;;;;;-142.59;100.00;56100.38;5102619;27;49865;-68
2022/04/05 07:30:24;;;;;;;;;13.25;11.75;;;;;-142.59;100.00;56100.38;5091363;27;49501;-66
2022/04/05 07:32:50;;;;;;;;;14.00;11.75;;;;;-142.59;100.00;56100.38;5091561;27;49618;-69
2022/04/05 07:35:17;;;;;;;;;12.00;11.25;;;;;-142.59;100.00;56100.38;5091048;27;49585;-67
2022/04/05 07:37:43;;;;;;;;;13.75;13.75;;;;;-142.59;100.00;56100.38;5090017;27;49826;-69
2022/04/05 07:40:10;;;;;;;;;11.00;10.50;;;;;-142.59;100.00;56100.38;5098131;27;49915;-68
2022/04/05 07:42:38;;;;;;;;;15.50;14.50;;;;;-142.59;100.00;56100.38;5091631;27;50084;-68
2022/04/05 07:45:05;;;;;;;;;15.00;10.50;;;;;-142.59;100.00;56100.38;5089449;27;51457;-69
2022/04/05 07:47:30;;;;;;;;;12.50;10.50;;;;;-142.59;100.00;56100.38;5090502;27;49686;-68
2022/04/05 07:49:56;;;;;;;;;14.25;12.75;;;;;-142.59;100.00;56100.38;5091267;27;49658;-69
2022/04/05 07:52:21;;;;;;;;;15.50;14.00;;;;;-142.59;100.00;56100.38;5091947;27;50023;-69
2022/04/05 07:54:47;;;;;;;;;13.00;11.25;;;;;-142.59;100.00;56100.38;5090723;27;50455;-69
2022/04/05 07:57:13;;;;;;;;;15.00;12.50;;;;;-142.59;100.00;56100.38;5091675;27;49886;-67
2022/04/05 07:59:39;;;;;;;;;16.50;14.00;;;;;-142.59;100.00;56100.38;5091104;27;49924;-69
2022/04/05 08:02:05;;;;;;;;;12.50;11.25;;;;;-142.59;100.00;56100.38;5099760;27;49889;-67
2022/04/05 08:04:30;;;;;;;;;14.50;14.00;;;;;-142.59;100.00;56100.38;5103043;27;50663;-70
2022/04/05 08:06:56;;;;;;;;;9.50;9.50;;;;;-142.59;100.00;56100.38;5101453;27;49806;-65
2022/04/05 08:09:21;;;;;;;;;15.00;15.00;;;;;-142.59;100.00;56100.38;5093948;27;49755;-69
2022/04/05 08:11:47;;;;;;;;;15.75;14.75;;;;;-142.59;100.00;56100.38;5090689;27;49990;-66
2022/04/05 08:14:12;;;;;;;;;23.50;18.25;;;;;-142.59;100.00;56100.38;5090633;27;50080;-78
2022/04/05 08:16:38;;;;;;;;;16.75;16.00;;;;;-142.59;100.00;56100.38;5089449;27;49716;-76
2022/04/05 08:19:04;;;;;;;;;14.50;11.25;;;;;-142.59;100.00;56100.38;5091002;27;49802;-65
2022/04/05 08:21:30;;;;;;;;;12.50;12.25;;;;;-142.59;100.00;56100.38;5091219;27;50089;-67
2022/04/05 08:23:55;;;;;;;;;14.75;13.50;;;;;-142.59;100.00;56100.38;5090429;27;50562;-67
2022/04/05 08:26:21;;;;;;;;;16.50;16.00;;;;;-142.59;100.00;56100.38;5090531;27;49604;-67
2022/04/05 08:28:46;;;;;;;;;14.00;14.00;;;;;-142.59;100.00;56100.38;5090569;27;49608;-67
2022/04/05 08:31:12;;;;;;;;;10.25;5.25;;;;;-142.59;100.00;56100.38;5090850;27;49682;-67
2022/04/05 08:33:37;;;;;;;;;16.00;16.00;;;;;-142.59;100.00;56100.38;5090627;27;49710;-67
2022/04/05 08:36:03;;;;;;;;;17.00;17.00;;;;;-142.59;100.00;56100.38;5090518;27;49627;-68
2022/04/05 08:38:29;;;;;;;;;12.50;12.00;;;;;-142.59;100.00;56100.38;5090421;27;49826;-68
2022/04/05 08:40:55;;;;;;;;;17.75;16.00;;;;;-142.59;100.00;56100.38;5090912;27;49745;-65
2022/04/05 08:43:21;;;;;;;;;14.00;10.75;;;;;-142.59;100.00;56100.38;5089928;27;50720;-63
2022/04/05 08:45:58;;;;;;;;;15.75;15.00;;;;;-142.59;100.00;56100.38;5090408;27;49648;-63
2022/04/05 08:48:26;;;;;;;;;18.00;18.00;;;;;-142.59;100.00;56100.38;5090555;27;49798;-63
2022/04/05 08:50:53;;;;;;;;;13.25;13.25;;;;;-142.59;100.00;56100.38;5090483;27;50017;-64
2022/04/05 08:53:19;;;;;;;;;13.75;12.50;;;;;-142.59;100.00;56100.38;5088993;27;52442;-63
2022/04/05 08:55:45;;;;;;;;;16.00;14.75;;;;;-142.59;100.00;56100.38;5090237;27;50385;-64
2022/04/05 08:58:10;;;;;;;;;13.75;13.25;;;;;-142.59;100.00;56100.38;5105758;27;49751;-64
2022/04/05 09:00:36;;;;;;;;;17.00;13.25;;;;;-142.59;100.00;56100.38;5111914;27;49861;-65
2022/04/05 09:03:04;;;;;;;;;17.25;15.00;;;;;-142.59;100.00;56100.38;5113503;27;49687;-65
2022/04/05 09:05:35;;;;;;;;;14.00;11.75;;;;;-142.59;100.00;56100.38;5113501;27;49844;-64
2022/04/05 09:08:18;;;;;;;;;14.75;12.50;;;;;-142.59;100.00;56100.38;5113762;27;49744;-63
2022/04/05 09:11:05;;;;;;;;;15.75;15.75;;;;;-142.59;100.00;56100.38;5113934;27;49705;-64
2022/04/05 09:13:31;;;;;;;;;14.25;14.00;;;;;-142.59;100.00;56100.38;5111988;27;49913;-64
2022/04/05 09:15:59;;;;;;;;;47.75;38.25;;;;;-142.59;100.00;56100.38;5113042;27;49823;-65
2022/04/05 09:18:36;;;;;;;;;80.25;60.25;;;;;-142.59;100.00;56100.38;5113116;27;49857;-64
2022/04/05 09:21:03;;;;;;;;;21.25;18.75;;;;;-142.59;100.00;56100.38;5113872;27;49835;-64
2022/04/05 09:23:33;;;;;;;;;41.25;36.50;;;;;-142.59;100.00;56100.38;5112996;27;50572;-64
2022/04/05 09:26:00;;;;;;;;;38.00;36.50;;;;;-142.59;100.00;56100.38;5113079;27;49820;-65
2022/04/05 09:28:28;;;;;;;;;35.50;34.25;;;;;-142.59;100.00;56100.38;5112926;27;49672;-64
2022/04/05 09:30:58;;;;;;;;;14.50;14.50;;;;;-142.59;100.00;56100.38;5113281;27;50021;-64
2022/04/05 09:33:23;;;;;;;;;26.75;19.25;;;;;-142.59;100.00;56100.38;5112701;27;50688;-64
2022/04/05 09:35:53;;;;;;;;;28.75;27.00;;;;;-142.59;100.00;56100.38;5112914;27;49561;-64
2022/04/05 09:38:20;;;;;;;;;23.25;21.00;;;;;-142.59;100.00;56100.38;5112493;27;49524;-63
2022/04/05 09:40:50;;;;;;;;;16.00;15.00;;;;;-142.59;100.00;56100.38;5113030;27;49921;-64
2022/04/05 09:43:16;;;;;;;;;20.75;19.25;;;;;-142.59;100.00;56100.38;5111617;27;50676;-64
2022/04/05 09:45:50;;;;;;;;;24.00;19.50;;;;;-142.59;100.00;56100.38;5092712;27;49798;-64
2022/04/05 09:48:20;;;;;;;;;14.75;14.75;;;;;-142.59;100.00;56100.38;5099912;27;49841;-64
2022/04/05 09:51:09;;;;;;;;;18.75;15.25;;;;;-142.59;100.00;56100.38;5092992;27;50044;-64
2022/04/05 09:53:50;;;;;;;;;17.00;17.00;;;;;-142.59;100.00;56100.38;5108966;27;50905;-64
2022/04/05 09:56:15;;;;;;;;;17.50;16.75;;;;;-142.59;100.00;56100.38;5112472;27;49893;-64
2022/04/05 09:58:55;;;;;;;;;19.00;18.25;;;;;-142.59;100.00;56100.38;5111462;27;49726;-67
2022/04/05 10:01:25;;;;;;;;;24.50;23.50;;;;;-142.59;100.00;56100.38;5111557;27;49751;-68
2022/04/05 10:04:00;;;;;;;;;12.25;12.00;;;;;-142.59;100.00;56100.38;5112287;27;49979;-65
2022/04/05 10:06:30;;;;;;;;;17.75;17.75;;;;;-142.59;100.00;56100.38;5112522;27;49850;-65
2022/04/05 10:08:56;;;;;;;;;16.00;16.00;;;;;-142.59;100.00;56100.38;5112490;27;50005;-68
2022/04/05 10:11:28;;;;;;;;;12.75;12.00;;;;;-142.59;100.00;56100.38;5112298;27;49854;-67
2022/04/05 10:13:54;;;;;;;;;16.50;14.75;;;;;-142.59;100.00;56100.38;5111800;27;49871;-65
2022/04/05 10:16:23;;;;;;;;;10.25;8.25;;;;;-142.59;100.00;56100.38;5112340;27;49847;-67
2022/04/05 10:18:50;;;;;;;;;16.75;13.25;;;;;-142.59;100.00;56100.38;5111390;27;49776;-69
2022/04/05 10:21:16;;;;;;;;;14.25;12.75;;;;;-142.59;100.00;56100.38;5112564;27;49934;-65
2022/04/05 10:23:44;;;;;;;;;14.25;11.25;;;;;-142.59;100.00;56100.38;5097631;27;49898;-65
2022/04/05 10:26:15;;;;;;;;;18.25;12.50;;;;;-142.59;100.00;56100.38;5110914;27;49914;-67
2022/04/05 10:28:44;;;;;;;;;16.75;14.75;;;;;-142.59;100.00;56100.38;5111850;27;50537;-67
2022/04/05 10:31:32;;;;;;;;;14.50;11.00;;;;;-142.59;100.00;56100.38;5112286;27;49637;-68
2022/04/05 10:34:15;;;;;;;;;14.50;12.25;;;;;-142.59;100.00;56100.38;5111968;27;49714;-68
2022/04/05 10:37:06;;;;;;;;;15.25;13.25;;;;;-142.59;100.00;56100.38;5110936;27;49677;-65
2022/04/05 10:39:32;;;;;;;;;14.50;12.75;;;;;-142.59;100.00;56100.38;5096094;27;49841;-64
2022/04/05 10:42:40;;;;;;;;;12.00;11.50;;;;;-142.59;100.00;56100.38;5104797;27;49941;-64
2022/04/05 10:45:16;;;;;;;;;13.75;13.75;;;;;-142.59;100.00;56100.38;5091579;27;50342;-63
2022/04/05 10:48:00;;;;;;;;;17.25;14.50;;;;;-142.59;100.00;56100.38;5092029;27;49762;-64
2022/04/05 10:50:26;;;;;;;;;16.00;14.25;;;;;-142.59;100.00;56100.38;5092551;27;49886;-64
2022/04/05 10:53:17;;;;;;;;;13.50;10.75;;;;;-142.59;100.00;56100.38;5092255;27;49735;-64
2022/04/05 10:56:04;;;;;;;;;19.50;17.25;;;;;-142.59;100.00;56100.38;5091350;27;50694;-64